createdAt,value
2023-01-20T00:02:20.909Z,-1.54
2023-01-20T00:05:06.777Z,-1.54
2023-01-20T00:07:52.303Z,-1.54
2023-01-20T00:10:37.582Z,-1.55
2023-01-20T00:13:23.041Z,-1.55
2023-01-20T00:16:10.487Z,-1.55
2023-01-20T00:18:55.832Z,-1.55
2023-01-20T00:21:41.326Z,-1.56
2023-01-20T00:24:26.790Z,-1.56
2023-01-20T00:27:12.256Z,-1.55
2023-01-20T00:29:57.876Z,-1.54
2023-01-20T00:32:45.952Z,-1.53
2023-01-20T00:35:31.514Z,-1.52
2023-01-20T00:38:17.733Z,-1.53
2023-01-20T00:41:03.564Z,-1.54
2023-01-20T00:43:49.625Z,-1.54
2023-01-20T00:46:35.388Z,-1.56
2023-01-20T00:49:21.012Z,-1.59
2023-01-20T00:52:06.330Z,-1.63
2023-01-20T00:54:51.477Z,-1.65
2023-01-20T00:57:36.846Z,-1.67
2023-01-20T01:00:22.089Z,-1.71
2023-01-20T01:03:07.483Z,-1.75
2023-01-20T01:05:52.782Z,-1.80
2023-01-20T01:08:38.057Z,-1.85
2023-01-20T01:11:23.363Z,-1.94
2023-01-20T01:14:08.723Z,-1.99
2023-01-20T01:16:56.511Z,-2.06
2023-01-20T01:19:42.515Z,-2.11
2023-01-20T01:22:27.701Z,-2.18
2023-01-20T01:25:13.202Z,-2.25
2023-01-20T01:27:58.721Z,-2.30
2023-01-20T01:30:46.429Z,-2.33
2023-01-20T01:33:32.298Z,-2.38
2023-01-20T01:36:18.125Z,-2.44
2023-01-20T01:39:04.065Z,-2.51
2023-01-20T01:41:49.378Z,-2.55
2023-01-20T01:44:36.563Z,-2.59
2023-01-20T01:47:21.878Z,-2.54
2023-01-20T01:50:10.235Z,-2.38
2023-01-20T01:52:56.808Z,-2.33
2023-01-20T01:55:51.595Z,-2.35
2023-01-20T01:58:40.994Z,-2.46
2023-01-20T02:01:27.762Z,-2.57
2023-01-20T02:04:16.220Z,-2.63
2023-01-20T02:07:09.814Z,-2.67
2023-01-20T02:09:56.060Z,-2.72
2023-01-20T02:12:47.214Z,-2.79
2023-01-20T02:16:09.206Z,-2.83
2023-01-20T02:19:09.869Z,-2.88
2023-01-20T02:21:58.669Z,-2.90
2023-01-20T02:25:17.870Z,-2.94
2023-01-20T02:28:33.310Z,-2.95
2023-01-20T02:31:21.818Z,-2.94
2023-01-20T02:34:13.288Z,-2.94
2023-01-20T02:37:14.955Z,-2.95
2023-01-20T02:40:48.231Z,-2.94
2023-01-20T02:43:48.613Z,-2.92
2023-01-20T02:46:48.523Z,-2.93
2023-01-20T02:49:52.859Z,-2.90
2023-01-20T02:52:53.492Z,-2.92
2023-01-20T02:55:44.190Z,-2.92
2023-01-20T02:58:43.153Z,-2.90
2023-01-20T03:01:37.086Z,-2.86
2023-01-20T03:04:28.141Z,-2.83
2023-01-20T03:07:15.236Z,-2.79
2023-01-20T03:10:05.794Z,-2.77
2023-01-20T03:13:03.024Z,-2.74
2023-01-20T03:16:01.241Z,-2.69
2023-01-20T03:18:46.849Z,-2.64
2023-01-20T03:21:34.087Z,-2.62
2023-01-20T03:24:20.595Z,-2.59
2023-01-20T03:27:06.166Z,-2.59
2023-01-20T03:29:51.845Z,-2.56
2023-01-20T03:32:37.765Z,-2.53
2023-01-20T03:35:24.381Z,-2.50
2023-01-20T03:38:10.823Z,-2.46
2023-01-20T03:41:05.539Z,-2.44
2023-01-20T03:43:57.391Z,-2.40
2023-01-20T03:46:55.575Z,-2.38
2023-01-20T03:50:00.085Z,-2.35
2023-01-20T03:52:54.101Z,-2.31
2023-01-20T03:55:46.485Z,-2.28
2023-01-20T03:58:39.391Z,-2.26
2023-01-20T04:01:37.152Z,-2.26
2023-01-20T04:04:22.709Z,-2.24
2023-01-20T04:07:11.522Z,-2.24
2023-01-20T04:10:03.097Z,-2.23
2023-01-20T04:12:48.926Z,-2.23
2023-01-20T04:15:44.450Z,-2.23
2023-01-20T04:18:30.044Z,-2.22
2023-01-20T04:21:35.138Z,-2.21
2023-01-20T04:24:33.872Z,-2.22
2023-01-20T04:27:19.364Z,-2.21
2023-01-20T04:30:05.341Z,-2.22
2023-01-20T04:32:50.864Z,-2.20
2023-01-20T04:35:36.426Z,-2.21
2023-01-20T04:38:21.951Z,-2.21
2023-01-20T04:41:09.553Z,-2.18
2023-01-20T04:43:55.290Z,-2.20
2023-01-20T04:46:40.910Z,-2.18
2023-01-20T04:49:26.150Z,-2.18
2023-01-20T04:52:11.672Z,-2.16
2023-01-20T04:54:56.970Z,-2.15
2023-01-20T04:57:42.347Z,-2.13
2023-01-20T05:00:27.701Z,-2.11
2023-01-20T05:03:13.119Z,-2.10
2023-01-20T05:05:58.546Z,-2.10
2023-01-20T05:08:43.816Z,-2.09
2023-01-20T05:11:29.161Z,-2.09
2023-01-20T05:14:15.853Z,-2.08
2023-01-20T05:17:01.314Z,-2.07
2023-01-20T05:19:46.660Z,-2.06
2023-01-20T05:22:33.275Z,-2.04
2023-01-20T05:25:19.023Z,-2.04
2023-01-20T05:28:04.380Z,-2.03
2023-01-20T05:30:50.961Z,-2.02
2023-01-20T05:33:37.898Z,-2.01
2023-01-20T05:36:23.491Z,-2.01
2023-01-20T05:39:08.999Z,-2.01
2023-01-20T05:41:54.361Z,-2.01
2023-01-20T05:44:42.305Z,-1.98
2023-01-20T05:47:27.797Z,-1.97
2023-01-20T05:50:13.328Z,-1.94
2023-01-20T05:52:58.714Z,-1.93
2023-01-20T05:55:44.265Z,-1.91
2023-01-20T05:58:30.082Z,-1.91
2023-01-20T06:01:15.851Z,-1.90
2023-01-20T06:04:01.207Z,-1.90
2023-01-20T06:06:46.405Z,-1.89
2023-01-20T06:09:31.739Z,-1.88
2023-01-20T06:12:17.042Z,-1.90
2023-01-20T06:15:02.749Z,-1.90
2023-01-20T06:17:48.495Z,-1.87
2023-01-20T06:20:33.760Z,-1.87
2023-01-20T06:23:19.167Z,-1.86
2023-01-20T06:26:07.266Z,-1.86
2023-01-20T06:28:52.889Z,-1.84
2023-01-20T06:31:38.219Z,-1.83
2023-01-20T06:34:23.475Z,-1.83
2023-01-20T06:37:09.050Z,-1.82
2023-01-20T06:39:54.556Z,-1.82
2023-01-20T06:42:40.176Z,-1.79
2023-01-20T06:45:25.979Z,-1.79
2023-01-20T06:48:11.372Z,-1.80
2023-01-20T06:51:09.595Z,-1.79
2023-01-20T06:53:55.690Z,-1.76
2023-01-20T06:56:41.617Z,-1.75
2023-01-20T06:59:27.001Z,-1.73
2023-01-20T07:02:13.186Z,-1.72
2023-01-20T07:05:00.113Z,-1.70
2023-01-20T07:07:46.150Z,-1.70
2023-01-20T07:10:31.625Z,-1.68
2023-01-20T07:13:16.923Z,-1.66
2023-01-20T07:16:02.331Z,-1.66
2023-01-20T07:18:49.447Z,-1.65
2023-01-20T07:21:37.741Z,-1.65
2023-01-20T07:24:23.057Z,-1.66
2023-01-20T07:27:08.784Z,-1.64
2023-01-20T07:29:54.197Z,-1.63
2023-01-20T07:32:39.874Z,-1.61
2023-01-20T07:35:28.271Z,-1.60
2023-01-20T07:38:14.012Z,-1.57
2023-01-20T07:41:05.356Z,-1.56
2023-01-20T07:43:53.018Z,-1.54
2023-01-20T07:46:38.471Z,-1.52
2023-01-20T07:50:02.630Z,-1.49
2023-01-20T07:53:10.756Z,-1.48
2023-01-20T07:56:14.015Z,-1.44
2023-01-20T07:59:51.860Z,-1.43
2023-01-20T08:02:49.620Z,-1.40
2023-01-20T08:05:54.831Z,-1.39
2023-01-20T08:12:50.034Z,-1.36
2023-01-20T08:20:03.881Z,-1.30
2023-01-20T08:26:18.983Z,-1.25
2023-01-20T08:29:34.322Z,-1.21
2023-01-20T08:32:33.947Z,-1.18
2023-01-20T08:35:28.923Z,-1.14
2023-01-20T08:38:16.683Z,-1.12
2023-01-20T08:41:13.383Z,-1.10
2023-01-20T08:44:04.731Z,-1.06
2023-01-20T08:46:52.799Z,-1.03
2023-01-20T08:49:42.976Z,-0.99
2023-01-20T08:52:28.731Z,-0.96
2023-01-20T08:55:14.443Z,-0.91
2023-01-20T08:58:01.199Z,-0.88
2023-01-20T09:00:46.679Z,-0.85
2023-01-20T09:03:33.167Z,-0.82
2023-01-20T09:06:21.577Z,-0.77
2023-01-20T09:09:07.257Z,-0.74
2023-01-20T09:11:52.798Z,-0.71
2023-01-20T09:14:39.049Z,-0.69
2023-01-20T09:17:24.485Z,-0.68
2023-01-20T09:20:10.755Z,-0.69
2023-01-20T09:23:00.683Z,-0.66
2023-01-20T09:25:46.362Z,-0.64
2023-01-20T09:28:32.198Z,-0.61
2023-01-20T09:31:18.564Z,-0.56
2023-01-20T09:34:04.037Z,-0.52
2023-01-20T09:36:51.379Z,-0.50
2023-01-20T09:39:55.850Z,-0.47
2023-01-20T09:43:33.064Z,-0.46
2023-01-20T09:46:30.671Z,-0.42
2023-01-20T09:49:49.424Z,-0.40
2023-01-20T09:52:55.812Z,-0.37
2023-01-20T09:55:56.741Z,-0.31
2023-01-20T09:58:53.178Z,-0.26
2023-01-20T10:02:01.575Z,-0.21
2023-01-20T10:04:54.661Z,-0.17
2023-01-20T10:07:56.291Z,-0.13
2023-01-20T10:11:06.094Z,-0.09
2023-01-20T10:14:00.123Z,-0.05
2023-01-20T10:17:04.917Z,-0.02
2023-01-20T10:20:17.390Z,0.03
2023-01-20T10:23:16.469Z,0.09
2023-01-20T10:26:09.751Z,0.18
2023-01-20T10:29:09.366Z,0.24
2023-01-20T10:32:00.827Z,0.30
2023-01-20T10:34:47.891Z,0.36
2023-01-20T10:37:35.505Z,0.41
2023-01-20T10:40:24.289Z,0.46
2023-01-20T10:43:15.900Z,0.47
2023-01-20T10:46:22.769Z,0.53
2023-01-20T10:49:17.161Z,0.59
2023-01-20T10:52:19.278Z,0.67
2023-01-20T10:55:52.677Z,0.72
2023-01-20T10:58:43.428Z,0.73
2023-01-20T11:01:29.411Z,0.74
2023-01-20T11:04:24.165Z,0.76
2023-01-20T11:07:16.163Z,0.73
2023-01-20T11:10:15.118Z,0.68
2023-01-20T11:13:02.729Z,0.60
2023-01-20T11:15:49.612Z,0.56
2023-01-20T11:18:35.160Z,0.55
2023-01-20T11:21:24.423Z,0.51
2023-01-20T11:24:40.976Z,0.48
2023-01-20T11:27:30.119Z,0.50
2023-01-20T11:30:30.279Z,0.53
2023-01-20T11:33:25.179Z,0.58
2023-01-20T11:36:19.238Z,0.60
2023-01-20T11:39:08.646Z,0.63
2023-01-20T11:42:20.787Z,0.64
2023-01-20T11:45:30.320Z,0.64
2023-01-20T11:48:18.872Z,0.64
2023-01-20T11:51:07.636Z,0.69
2023-01-20T11:54:15.740Z,0.71
2023-01-20T11:57:06.569Z,0.76
2023-01-20T11:59:51.977Z,0.80
2023-01-20T12:02:38.434Z,0.82
2023-01-20T12:05:39.901Z,0.84
2023-01-20T12:08:39.460Z,0.87
2023-01-20T12:11:30.268Z,0.88
2023-01-20T12:14:25.454Z,0.88
2023-01-20T12:17:19.251Z,0.86
2023-01-20T12:20:10.867Z,0.88
2023-01-20T12:23:04.962Z,0.88
2023-01-20T12:26:06.764Z,0.89
2023-01-20T12:29:16.305Z,0.89
2023-01-20T12:32:01.960Z,0.86
2023-01-20T12:39:05.645Z,0.78
2023-01-20T12:42:10.118Z,0.76
2023-01-20T12:45:20.571Z,0.71
2023-01-20T12:48:12.155Z,0.68
2023-01-20T12:51:25.723Z,0.66
2023-01-20T12:54:17.164Z,0.64
2023-01-20T12:57:11.930Z,0.64
2023-01-20T13:00:24.448Z,0.68
2023-01-20T13:03:31.606Z,0.72
2023-01-20T13:06:37.766Z,0.75
2023-01-20T13:09:56.929Z,0.75
2023-01-20T13:12:51.768Z,0.75
2023-01-20T13:15:43.852Z,0.74
2023-01-20T13:18:39.564Z,0.75
2023-01-20T13:21:25.168Z,0.74
2023-01-20T13:24:29.120Z,0.72
2023-01-20T13:27:51.061Z,0.71
2023-01-20T13:30:54.810Z,0.70
2023-01-20T13:33:42.199Z,0.64
2023-01-20T13:36:27.912Z,0.60
2023-01-20T13:39:39.651Z,0.58
2023-01-20T13:42:37.541Z,0.57
2023-01-20T13:45:24.643Z,0.55
2023-01-20T13:48:22.398Z,0.54
2023-01-20T13:51:19.594Z,0.52
2023-01-20T13:54:24.972Z,0.52
2023-01-20T13:57:20.521Z,0.53
2023-01-20T14:00:12.534Z,0.51
2023-01-20T14:02:58.129Z,0.51
2023-01-20T14:05:43.481Z,0.52
2023-01-20T14:08:34.145Z,0.53
2023-01-20T14:11:22.756Z,0.53
2023-01-20T14:14:19.127Z,0.52
2023-01-20T14:17:15.180Z,0.50
2023-01-20T14:20:00.696Z,0.51
2023-01-20T14:22:46.832Z,0.49
2023-01-20T14:25:32.007Z,0.48
2023-01-20T14:28:20.419Z,0.48
2023-01-20T14:31:32.027Z,0.48
2023-01-20T14:34:32.661Z,0.45
2023-01-20T14:37:37.203Z,0.40
2023-01-20T14:40:27.086Z,0.38
2023-01-20T14:43:19.620Z,0.38
2023-01-20T14:46:05.335Z,0.39
2023-01-20T14:48:53.150Z,0.37
2023-01-20T14:51:38.744Z,0.37
2023-01-20T14:54:35.594Z,0.36
2023-01-20T14:57:32.204Z,0.35
2023-01-20T15:00:21.727Z,0.35
2023-01-20T15:03:19.639Z,0.32
2023-01-20T15:06:11.447Z,0.32
2023-01-20T15:09:07.153Z,0.29
2023-01-20T15:12:31.580Z,0.27
2023-01-20T15:15:23.077Z,0.24
2023-01-20T15:18:11.829Z,0.21
2023-01-20T15:21:16.907Z,0.19
2023-01-20T15:24:30.860Z,0.14
2023-01-20T15:27:29.390Z,0.12
2023-01-20T15:30:21.387Z,0.10
2023-01-20T15:33:08.739Z,0.09
2023-01-20T15:35:59.344Z,0.07
2023-01-20T15:38:45.276Z,0.05
2023-01-20T15:41:30.949Z,0.02
2023-01-20T15:44:16.421Z,0.01
2023-01-20T15:47:02.596Z,-0.02
2023-01-20T15:49:48.187Z,-0.03
2023-01-20T15:52:33.786Z,-0.04
2023-01-20T15:55:20.830Z,-0.09
2023-01-20T15:58:20.910Z,-0.12
2023-01-20T16:01:06.680Z,-0.13
2023-01-20T16:03:54.995Z,-0.13
2023-01-20T16:06:40.524Z,-0.17
2023-01-20T16:09:29.878Z,-0.19
2023-01-20T16:12:17.249Z,-0.20
2023-01-20T16:15:02.609Z,-0.22
2023-01-20T16:17:48.297Z,-0.23
2023-01-20T16:20:35.774Z,-0.24
2023-01-20T16:23:21.206Z,-0.24
2023-01-20T16:26:23.729Z,-0.25
2023-01-20T16:29:09.306Z,-0.23
2023-01-20T16:31:55.006Z,-0.24
2023-01-20T16:34:40.193Z,-0.24
2023-01-20T16:37:25.819Z,-0.25
2023-01-20T16:40:20.180Z,-0.26
2023-01-20T16:43:07.501Z,-0.28
2023-01-20T16:45:55.164Z,-0.29
2023-01-20T16:48:40.776Z,-0.29
2023-01-20T16:51:26.679Z,-0.31
2023-01-20T16:54:12.038Z,-0.31
2023-01-20T16:56:57.641Z,-0.32
2023-01-20T16:59:43.186Z,-0.36
2023-01-20T17:02:28.583Z,-0.36
2023-01-20T17:05:13.960Z,-0.39
2023-01-20T17:07:59.681Z,-0.41
2023-01-20T17:10:47.867Z,-0.43
2023-01-20T17:13:33.467Z,-0.44
2023-01-20T17:16:19.856Z,-0.43
2023-01-20T17:19:06.076Z,-0.42
2023-01-20T17:21:52.196Z,-0.40
2023-01-20T17:24:39.301Z,-0.40
2023-01-20T17:27:24.945Z,-0.43
2023-01-20T17:30:10.984Z,-0.40
2023-01-20T17:32:56.625Z,-0.39
2023-01-20T17:35:43.164Z,-0.39
2023-01-20T17:38:29.920Z,-0.40
2023-01-20T17:41:17.116Z,-0.42
2023-01-20T17:44:04.046Z,-0.45
2023-01-20T17:46:50.554Z,-0.46
2023-01-20T17:49:36.368Z,-0.47
2023-01-20T17:52:22.764Z,-0.49
2023-01-20T17:55:08.330Z,-0.53
2023-01-20T17:57:53.835Z,-0.56
2023-01-20T18:00:39.565Z,-0.59
2023-01-20T18:03:25.138Z,-0.62
2023-01-20T18:06:14.581Z,-0.61
2023-01-20T18:09:01.313Z,-0.62
2023-01-20T18:11:46.600Z,-0.62
2023-01-20T18:14:31.765Z,-0.62
2023-01-20T18:17:17.192Z,-0.62
2023-01-20T18:20:02.622Z,-0.62
2023-01-20T18:22:50.515Z,-0.63
2023-01-20T18:25:35.706Z,-0.62
2023-01-20T18:28:22.701Z,-0.62
2023-01-20T18:31:14.433Z,-0.64
2023-01-20T18:34:03.069Z,-0.65
2023-01-20T18:36:49.876Z,-0.63
2023-01-20T18:39:36.832Z,-0.61
2023-01-20T18:42:22.681Z,-0.61
2023-01-20T18:45:09.056Z,-0.61
2023-01-20T18:47:54.349Z,-0.61
2023-01-20T18:50:40.492Z,-0.62
2023-01-20T18:53:27.487Z,-0.61
2023-01-20T18:56:16.301Z,-0.65
2023-01-20T18:59:03.648Z,-0.66
2023-01-20T19:01:49.676Z,-0.66
2023-01-20T19:04:35.763Z,-0.63
2023-01-20T19:07:21.536Z,-0.62
2023-01-20T19:10:07.150Z,-0.63
2023-01-20T19:12:53.391Z,-0.62
2023-01-20T19:15:39.465Z,-0.63
2023-01-20T19:18:25.243Z,-0.65
2023-01-20T19:21:14.922Z,-0.63
2023-01-20T19:24:05.765Z,-0.63
2023-01-20T19:26:51.548Z,-0.63
2023-01-20T19:29:36.736Z,-0.62
2023-01-20T19:32:22.152Z,-0.61
2023-01-20T19:35:08.444Z,-0.61
2023-01-20T19:37:53.696Z,-0.59
2023-01-20T19:40:39.717Z,-0.59
2023-01-20T19:43:25.135Z,-0.58
2023-01-20T19:46:19.981Z,-0.59
2023-01-20T19:49:06.430Z,-0.58
2023-01-20T19:51:52.205Z,-0.57
2023-01-20T19:54:38.542Z,-0.57
2023-01-20T19:57:25.448Z,-0.60
2023-01-20T20:00:12.232Z,-0.60
2023-01-20T20:02:57.843Z,-0.61
2023-01-20T20:05:44.187Z,-0.60
2023-01-20T20:08:29.694Z,-0.60
2023-01-20T20:11:15.534Z,-0.61
2023-01-20T20:14:03.226Z,-0.61
2023-01-20T20:16:49.750Z,-0.62
2023-01-20T20:19:35.911Z,-0.62
2023-01-20T20:22:21.356Z,-0.65
2023-01-20T20:25:09.899Z,-0.65
2023-01-20T20:28:06.368Z,-0.67
2023-01-20T20:30:52.653Z,-0.68
2023-01-20T20:33:38.482Z,-0.68
2023-01-20T20:36:24.413Z,-0.68
2023-01-20T20:39:13.979Z,-0.68
2023-01-20T20:41:59.948Z,-0.69
2023-01-20T20:44:45.462Z,-0.69
2023-01-20T20:47:32.851Z,-0.70
2023-01-20T20:50:19.051Z,-0.70
2023-01-20T20:53:04.666Z,-0.71
2023-01-20T20:55:53.903Z,-0.72
2023-01-20T20:58:51.854Z,-0.74
2023-01-20T21:01:45.252Z,-0.75
2023-01-20T21:04:31.305Z,-0.76
2023-01-20T21:07:17.156Z,-0.77
2023-01-20T21:10:04.935Z,-0.77
2023-01-20T21:12:50.150Z,-0.77
2023-01-20T21:15:36.809Z,-0.79
2023-01-20T21:18:22.419Z,-0.79
2023-01-20T21:21:12.260Z,-0.80
2023-01-20T21:23:59.081Z,-0.81
2023-01-20T21:26:44.852Z,-0.82
2023-01-20T21:29:30.293Z,-0.83
2023-01-20T21:32:15.864Z,-0.83
2023-01-20T21:35:02.041Z,-0.83
2023-01-20T21:37:48.431Z,-0.83
2023-01-20T21:40:34.868Z,-0.84
2023-01-20T21:43:38.920Z,-0.84
2023-01-20T21:46:25.587Z,-0.84
2023-01-20T21:49:29.792Z,-0.84
2023-01-20T21:52:36.268Z,-0.83
2023-01-20T21:55:22.698Z,-0.83
2023-01-20T21:58:10.377Z,-0.83
2023-01-20T22:00:55.758Z,-0.83
2023-01-20T22:03:41.729Z,-0.84
2023-01-20T22:06:27.103Z,-0.82
2023-01-20T22:09:13.121Z,-0.80
2023-01-20T22:11:58.363Z,-0.80
2023-01-20T22:14:43.987Z,-0.81
2023-01-20T22:17:30.149Z,-0.82
2023-01-20T22:20:16.702Z,-0.83
2023-01-20T22:23:03.027Z,-0.85
2023-01-20T22:25:52.919Z,-0.87
2023-01-20T22:28:39.775Z,-0.89
2023-01-20T22:31:25.593Z,-0.92
2023-01-20T22:34:11.392Z,-0.94
2023-01-20T22:36:58.037Z,-0.98
2023-01-20T22:39:43.469Z,-1.00
2023-01-20T22:42:29.081Z,-1.00
2023-01-20T22:45:14.437Z,-1.03
2023-01-20T22:47:59.780Z,-1.04
2023-01-20T22:50:45.309Z,-1.06
2023-01-20T22:53:30.578Z,-1.07
2023-01-20T22:56:24.337Z,-1.09
2023-01-20T22:59:12.197Z,-1.11
2023-01-20T23:01:57.949Z,-1.12
2023-01-20T23:04:43.285Z,-1.14
2023-01-20T23:07:28.957Z,-1.13
2023-01-20T23:10:37.065Z,-1.16
2023-01-20T23:13:22.500Z,-1.17
2023-01-20T23:16:13.529Z,-1.18
2023-01-20T23:18:59.173Z,-1.20
2023-01-20T23:21:44.683Z,-1.21
2023-01-20T23:24:29.859Z,-1.25
2023-01-20T23:27:15.649Z,-1.26
2023-01-20T23:30:01.033Z,-1.27
2023-01-20T23:32:46.453Z,-1.29
2023-01-20T23:35:34.184Z,-1.30
2023-01-20T23:38:19.690Z,-1.31
2023-01-20T23:41:05.308Z,-1.32
2023-01-20T23:43:51.312Z,-1.30
2023-01-20T23:46:37.229Z,-1.30
2023-01-20T23:49:23.291Z,-1.31
2023-01-20T23:52:08.594Z,-1.30
2023-01-20T23:54:54.196Z,-1.30
2023-01-20T23:57:39.669Z,-1.31
